Time;durP1;ratioP1;P1;durP2;ratioP2;P2;SDS_P1;SDS_P2;PMS_P1;PMS_P2;Temp;Humidity;BMP_temperature;BMP_pressure;BME280_temperature;BME280_humidity;BME280_pressure;Samples;Min_cycle;Max_cycle;Signal;HPM_P1;HPM_P2
2023/05/30 00:00:12;;;;;;;5.30;2.60;;;;;;;14.98;50.95;100711.23;102593;277;120534;-57
2023/05/30 00:03:09;;;;;;;5.20;2.40;;;;;;;14.99;50.86;100714.05;102555;277;104737;-56
2023/05/30 00:05:48;;;;;;;7.20;1.90;;;;;;;14.99;50.81;100710.06;102548;277;114498;-55
2023/05/30 00:08:27;;;;;;;7.70;3.10;;;;;;;15.01;50.54;100705.66;102567;277;93791;-55
2023/05/30 00:11:07;;;;;;;5.20;1.90;;;;;;;15.00;50.50;100709.84;102648;277;96922;-53
2023/05/30 00:13:44;;;;;;;5.10;1.70;;;;;;;15.00;50.23;100709.67;102624;277;119838;-52
2023/05/30 00:16:23;;;;;;;5.80;2.00;;;;;;;15.00;50.11;100708.84;102651;277;103877;-55
2023/05/30 00:19:01;;;;;;;6.30;1.80;;;;;;;14.97;50.32;100708.64;102671;277;115005;-55
2023/05/30 00:21:37;;;;;;;6.90;2.40;;;;;;;14.94;50.21;100707.72;102674;277;95094;-51
2023/05/30 00:24:19;;;;;;;5.70;2.00;;;;;;;14.89;50.33;100706.76;102636;275;97096;-53
2023/05/30 00:26:56;;;;;;;4.00;1.90;;;;;;;14.82;50.25;100712.21;102617;277;119525;-56
2023/05/30 00:29:35;;;;;;;4.90;2.30;;;;;;;14.71;50.54;100710.20;102659;278;105338;-57
2023/05/30 00:32:10;;;;;;;6.30;2.10;;;;;;;14.62;50.91;100708.22;102638;277;113993;-55
2023/05/30 00:34:47;;;;;;;7.70;2.40;;;;;;;14.51;51.24;100708.87;102626;277;94807;-55
2023/05/30 00:37:24;;;;;;;5.00;2.00;;;;;;;14.42;51.50;100710.79;102517;277;97179;-55
2023/05/30 00:40:02;;;;;;;4.80;2.10;;;;;;;14.34;51.75;100712.77;102565;278;118586;-55
2023/05/30 00:42:41;;;;;;;5.90;2.30;;;;;;;14.26;52.10;100706.63;102620;277;105516;-52
2023/05/30 00:45:23;;;;;;;5.50;2.10;;;;;;;14.16;52.37;100712.66;102558;277;114842;-52
2023/05/30 00:48:00;;;;;;;5.70;2.20;;;;;;;14.09;52.58;100708.42;102541;277;94133;-56
2023/05/30 00:50:36;;;;;;;5.50;2.40;;;;;;;14.04;52.88;100711.20;102547;277;97814;-51
2023/05/30 00:53:19;;;;;;;8.30;2.50;;;;;;;14.00;53.18;100707.26;102570;277;120308;-53
2023/05/30 00:55:57;;;;;;;5.60;2.20;;;;;;;13.94;53.64;100709.45;102581;277;103572;-55
2023/05/30 00:58:33;;;;;;;4.50;2.20;;;;;;;13.88;53.98;100709.90;102590;277;113422;-56
2023/05/30 01:01:14;;;;;;;6.60;2.40;;;;;;;13.81;54.14;100710.84;102653;277;94124;-57
2023/05/30 01:03:59;;;;;;;6.10;2.70;;;;;;;13.76;54.23;100716.41;102718;277;96264;-56
2023/05/30 01:06:37;;;;;;;4.60;1.90;;;;;;;13.71;54.52;100721.14;102614;277;119842;-52
2023/05/30 01:09:20;;;;;;;7.00;3.40;;;;;;;13.68;54.92;100723.81;102588;279;105338;-53
2023/05/30 01:12:14;;;;;;;6.10;2.30;;;;;;;13.67;55.11;100721.79;102539;279;114140;-56
2023/05/30 01:15:00;;;;;;;7.90;3.30;;;;;;;13.64;55.59;100720.64;102521;279;95082;-56
2023/05/30 01:17:46;;;;;;;6.10;3.00;;;;;;;13.61;55.91;100722.98;102452;279;96772;-53
2023/05/30 01:20:26;;;;;;;4.40;2.50;;;;;;;13.58;55.99;100724.63;102477;279;120371;-52
2023/05/30 01:23:32;;;;;;;5.80;2.50;;;;;;;13.54;56.18;100725.65;102526;279;105125;-53
2023/05/30 01:26:32;;;;;;;4.90;2.60;;;;;;;13.47;56.36;100729.04;102489;279;114967;-55
2023/05/30 01:29:16;;;;;;;4.30;2.50;;;;;;;13.45;56.57;100732.20;102480;279;94676;-55
2023/05/30 01:31:54;;;;;;;;;;;;;;;13.40;56.97;100733.80;102532;279;97100;-55
2023/05/30 01:34:30;;;;;;;6.30;2.80;;;;;;;13.33;57.08;100740.22;102503;279;121627;-55
2023/05/30 01:37:07;;;;;;;5.70;2.80;;;;;;;13.29;57.03;100740.91;102540;279;104807;-53
2023/05/30 01:39:41;;;;;;;6.70;2.50;;;;;;;13.27;57.02;100747.94;102507;279;114189;-51
2023/05/30 01:42:28;;;;;;;5.70;2.30;;;;;;;13.26;57.06;100746.35;102552;279;92885;-53
2023/05/30 01:45:15;;;;;;;6.20;2.40;;;;;;;13.23;57.11;100746.95;102541;279;98607;-53
2023/05/30 01:47:59;;;;;;;6.00;2.60;;;;;;;13.19;57.19;100752.23;102427;279;118714;-52
2023/05/30 01:50:47;;;;;;;7.40;2.50;;;;;;;13.18;56.87;100749.54;102635;279;105868;-52
2023/05/30 01:53:31;;;;;;;6.10;2.30;;;;;;;13.17;56.83;100753.75;102570;279;113697;-53
2023/05/30 01:56:10;;;;;;;;;;;;;;;13.11;57.02;100750.12;102558;279;93848;-52
2023/05/30 01:58:52;;;;;;;4.30;2.40;;;;;;;13.05;56.95;100747.13;102442;279;96671;-52
2023/05/30 02:01:34;;;;;;;4.70;2.20;;;;;;;13.03;57.11;100747.16;102230;279;121032;-54
2023/05/30 02:04:12;;;;;;;6.30;2.20;;;;;;;12.98;57.18;100748.70;102519;279;105937;-56
2023/05/30 02:06:51;;;;;;;4.10;2.40;;;;;;;12.92;57.01;100753.56;102489;279;114425;-56
2023/05/30 02:09:32;;;;;;;6.30;2.20;;;;;;;12.83;57.19;100761.09;102598;277;94435;-55
2023/05/30 02:12:10;;;;;;;5.40;2.40;;;;;;;12.75;57.40;100760.76;102616;277;97317;-54
2023/05/30 02:14:47;;;;;;;6.90;2.70;;;;;;;12.69;57.53;100757.07;102587;277;120374;-52
2023/05/30 02:17:29;;;;;;;5.50;2.50;;;;;;;12.65;57.43;100755.86;102638;277;105937;-52
2023/05/30 02:20:09;;;;;;;7.30;2.50;;;;;;;12.61;57.51;100752.83;102584;278;115115;-52
2023/05/30 02:22:48;;;;;;;5.30;2.30;;;;;;;12.57;57.64;100759.96;102716;278;93586;-56
2023/05/30 02:25:31;;;;;;;7.00;2.30;;;;;;;12.52;57.67;100757.53;102619;277;95274;-56
2023/05/30 02:28:08;;;;;;;3.60;1.60;;;;;;;12.49;57.59;100760.29;102633;277;119361;-55
2023/05/30 02:30:48;;;;;;;7.10;2.20;;;;;;;12.44;57.70;100759.45;102642;277;105396;-52
2023/05/30 02:33:29;;;;;;;5.00;2.60;;;;;;;12.39;57.72;100761.31;102583;277;115482;-52
2023/05/30 02:36:12;;;;;;;7.00;2.10;;;;;;;12.32;57.94;100759.95;102665;277;94800;-52
2023/05/30 02:38:50;;;;;;;5.50;1.90;;;;;;;12.27;58.00;100763.02;102598;277;98017;-53
2023/05/30 02:41:28;;;;;;;3.80;1.80;;;;;;;12.22;58.10;100763.84;102623;278;120789;-53
2023/05/30 02:44:07;;;;;;;5.50;2.00;;;;;;;12.18;58.10;100765.45;102617;278;104079;-55
2023/05/30 02:46:41;;;;;;;4.40;2.30;;;;;;;12.12;58.20;100771.13;102608;275;112933;-54
2023/05/30 02:49:18;;;;;;;6.30;1.80;;;;;;;12.09;58.35;100774.93;102600;277;94688;-55
2023/05/30 02:52:00;;;;;;;5.50;1.90;;;;;;;12.06;58.39;100772.80;102614;277;96937;-55
2023/05/30 02:54:41;;;;;;;6.70;2.10;;;;;;;12.01;58.55;100772.09;102583;277;120662;-54
2023/05/30 02:57:21;;;;;;;5.90;2.20;;;;;;;12.02;58.55;100768.59;102581;278;105287;-56
2023/05/30 02:59:56;;;;;;;4.30;2.00;;;;;;;12.02;58.52;100771.64;102617;278;114237;-54
2023/05/30 03:02:35;;;;;;;6.50;2.30;;;;;;;12.02;58.62;100775.98;102650;277;94074;-51
2023/05/30 03:05:28;;;;;;;4.70;1.90;;;;;;;12.04;58.61;100775.84;102600;277;97025;-51
2023/05/30 03:08:06;;;;;;;6.50;2.40;;;;;;;12.08;58.96;100778.79;102692;278;119718;-56
2023/05/30 03:10:46;;;;;;;4.00;2.00;;;;;;;12.08;59.02;100776.46;102667;277;105329;-55
2023/05/30 03:13:24;;;;;;;5.20;1.90;;;;;;;12.07;59.10;100777.91;102703;277;114236;-56
2023/05/30 03:16:01;;;;;;;4.90;2.60;;;;;;;12.07;59.19;100777.89;102663;277;93537;-52
2023/05/30 03:18:42;;;;;;;6.30;2.90;;;;;;;12.09;59.19;100782.30;102680;278;98197;-52
2023/05/30 03:21:20;;;;;;;3.20;1.70;;;;;;;12.11;59.26;100783.83;102626;277;121085;-53
2023/05/30 03:24:00;;;;;;;5.50;2.10;;;;;;;12.17;59.07;100781.81;102634;277;105659;-53
2023/05/30 03:26:36;;;;;;;5.70;2.50;;;;;;;12.24;59.19;100782.91;102599;277;114172;-52
2023/05/30 03:29:13;;;;;;;5.50;2.10;;;;;;;12.30;59.30;100778.05;102645;277;93368;-52
2023/05/30 03:31:52;;;;;;;7.00;1.80;;;;;;;12.80;58.85;100785.45;102643;277;96938;-52
2023/05/30 03:34:33;;;;;;;7.90;2.50;;;;;;;13.89;58.11;100781.67;102616;278;121089;-53
2023/05/30 03:37:15;;;;;;;6.40;2.60;;;;;;;14.98;56.91;100782.30;102641;277;105414;-55
2023/05/30 03:39:53;;;;;;;6.20;2.20;;;;;;;15.92;55.66;100785.39;102601;277;113691;-55
2023/05/30 03:42:29;;;;;;;4.30;1.90;;;;;;;16.85;54.21;100780.36;102590;278;92512;-57
2023/05/30 03:45:08;;;;;;;3.00;1.80;;;;;;;17.72;52.83;100781.27;102637;277;96857;-56
2023/05/30 03:47:43;;;;;;;5.30;2.10;;;;;;;18.33;51.95;100780.73;102687;277;119345;-56
2023/05/30 03:50:27;;;;;;;4.10;1.90;;;;;;;18.99;50.65;100780.89;102692;278;105639;-55
2023/05/30 03:53:08;;;;;;;5.30;2.20;;;;;;;19.63;49.44;100785.61;102719;277;114794;-56
2023/05/30 03:55:49;;;;;;;5.10;2.10;;;;;;;20.19;48.39;100783.84;102699;277;94024;-57
2023/05/30 03:58:31;;;;;;;6.90;2.40;;;;;;;20.78;47.20;100776.90;102658;277;96879;-56
2023/05/30 04:01:12;;;;;;;5.80;2.20;;;;;;;21.40;45.94;100781.95;102755;277;121091;-56
2023/05/30 04:03:51;;;;;;;5.60;2.10;;;;;;;21.94;44.75;100784.75;102697;277;103238;-55
2023/05/30 04:06:29;;;;;;;6.50;2.20;;;;;;;22.32;43.73;100786.78;102656;278;114403;-56
2023/05/30 04:09:10;;;;;;;4.50;2.20;;;;;;;22.64;42.95;100794.62;102597;277;94921;-56
2023/05/30 04:11:48;;;;;;;6.90;2.30;;;;;;;22.85;41.95;100793.48;102606;266;96531;-53
2023/05/30 04:14:24;;;;;;;8.10;3.00;;;;;;;23.06;41.39;100795.65;102584;277;120608;-53
2023/05/30 04:17:04;;;;;;;8.60;2.90;;;;;;;23.06;40.75;100801.94;102627;277;106102;-57
2023/05/30 04:19:42;;;;;;;5.70;2.00;;;;;;;22.17;40.64;100811.61;102594;277;113500;-56
2023/05/30 04:22:18;;;;;;;6.50;2.50;;;;;;;20.84;41.35;100818.41;102589;277;94394;-55
2023/05/30 04:24:56;;;;;;;6.30;2.30;;;;;;;19.81;42.50;100826.33;102608;277;95212;-57
2023/05/30 04:27:36;;;;;;;8.90;2.70;;;;;;;19.58;43.14;100825.41;102642;277;121111;-55
2023/05/30 04:30:19;;;;;;;6.80;2.10;;;;;;;18.99;43.69;100825.90;102616;277;105688;-56
2023/05/30 04:33:03;;;;;;;9.10;2.40;;;;;;;18.13;44.63;100833.52;102640;277;114643;-55
2023/05/30 04:35:42;;;;;;;10.50;3.00;;;;;;;17.68;45.56;100832.29;102615;277;93820;-52
2023/05/30 04:38:26;;;;;;;7.40;2.50;;;;;;;17.40;46.30;100833.83;102497;277;95750;-52
2023/05/30 04:41:12;;;;;;;9.10;2.70;;;;;;;17.81;46.72;100830.00;102607;277;118510;-53
2023/05/30 04:43:52;;;;;;;8.90;2.60;;;;;;;18.22;46.31;100835.23;102563;278;105355;-54
2023/05/30 04:46:33;;;;;;;10.70;3.20;;;;;;;18.79;45.89;100832.91;102614;277;113976;-54
2023/05/30 04:49:16;;;;;;;9.40;2.80;;;;;;;19.50;45.26;100832.33;102550;277;94505;-53
2023/05/30 04:51:58;;;;;;;6.50;2.50;;;;;;;19.96;44.41;100840.61;102580;277;97669;-56
2023/05/30 04:54:33;;;;;;;6.20;2.80;;;;;;;20.63;43.73;100836.41;102570;277;118418;-56
2023/05/30 04:57:12;;;;;;;6.30;2.70;;;;;;;21.74;42.99;100832.52;102545;277;104357;-54
2023/05/30 04:59:52;;;;;;;9.30;2.60;;;;;;;22.98;41.96;100829.57;102533;277;114790;-53
2023/05/30 05:02:33;;;;;;;9.20;3.30;;;;;;;24.17;40.72;100835.55;102410;277;94500;-58
2023/05/30 05:05:12;;;;;;;5.20;2.50;;;;;;;25.52;39.39;100832.14;102643;277;96551;-57
2023/05/30 05:07:51;;;;;;;6.40;2.40;;;;;;;26.28;37.78;100833.02;102639;277;119630;-53
2023/05/30 05:10:36;;;;;;;6.10;2.60;;;;;;;26.99;36.99;100829.20;102666;277;105589;-55
2023/05/30 05:13:11;;;;;;;5.90;2.30;;;;;;;27.85;35.75;100833.19;102667;277;113911;-52
2023/05/30 05:15:57;;;;;;;6.30;2.80;;;;;;;28.17;34.53;100842.77;102651;277;94413;-54
2023/05/30 05:18:33;;;;;;;4.70;2.40;;;;;;;28.05;34.11;100837.65;102649;278;96404;-55
2023/05/30 05:21:08;;;;;;;5.90;2.30;;;;;;;28.21;33.37;100841.73;102613;277;120194;-53
2023/05/30 05:23:56;;;;;;;5.20;2.40;;;;;;;28.55;32.85;100842.46;102680;277;105841;-54
2023/05/30 05:26:40;;;;;;;5.00;2.30;;;;;;;28.86;32.18;100844.02;102705;277;114080;-53
2023/05/30 05:29:23;;;;;;;6.10;2.60;;;;;;;28.95;31.55;100842.61;102682;277;94373;-56
2023/05/30 05:32:05;;;;;;;5.90;2.20;;;;;;;29.38;31.25;100848.04;102687;277;98087;-56
2023/05/30 05:34:43;;;;;;;6.40;2.10;;;;;;;29.39;30.79;100848.36;102675;277;120890;-57
2023/05/30 05:37:20;;;;;;;6.50;2.50;;;;;;;29.63;30.17;100847.23;102637;277;104607;-54
2023/05/30 05:40:01;;;;;;;5.10;2.50;;;;;;;30.10;29.83;100845.67;102625;277;113538;-53
2023/05/30 05:42:44;;;;;;;6.30;2.90;;;;;;;30.32;29.34;100845.35;102625;278;94524;-54
2023/05/30 05:45:29;;;;;;;6.90;2.80;;;;;;;30.51;29.17;100844.64;102624;277;97349;-54
2023/05/30 05:48:13;;;;;;;6.00;2.70;;;;;;;31.11;28.93;100853.22;102613;277;119939;-54
2023/05/30 05:50:55;;;;;;;7.60;2.70;;;;;;;31.30;28.49;100851.91;102214;277;106458;-56
2023/05/30 05:53:31;;;;;;;6.60;2.30;;;;;;;31.73;27.90;100856.88;102597;277;115037;-56
2023/05/30 05:56:22;;;;;;;5.20;2.50;;;;;;;31.99;27.16;100858.07;102686;278;93874;-53
2023/05/30 05:59:00;;;;;;;5.80;2.60;;;;;;;32.40;26.63;100858.44;102617;277;98025;-55
2023/05/30 06:01:39;;;;;;;7.40;2.50;;;;;;;32.48;26.64;100861.86;102660;277;120651;-54
2023/05/30 06:04:18;;;;;;;4.90;2.00;;;;;;;32.83;26.01;100858.44;102630;277;103409;-55
2023/05/30 06:06:58;;;;;;;4.10;2.10;;;;;;;32.54;25.75;100856.80;102636;277;113786;-56
2023/05/30 06:09:36;;;;;;;6.20;2.50;;;;;;;32.27;25.37;100860.88;102654;277;94605;-58
2023/05/30 06:12:12;;;;;;;6.10;2.60;;;;;;;32.20;25.34;100861.64;102683;277;98024;-56
2023/05/30 06:14:49;;;;;;;5.00;2.70;;;;;;;32.51;25.24;100865.56;102415;277;121368;-57
2023/05/30 06:17:29;;;;;;;5.30;2.20;;;;;;;32.77;25.15;100866.05;102640;277;106111;-58
2023/05/30 06:20:14;;;;;;;7.30;2.40;;;;;;;33.57;24.56;100870.54;102475;278;114756;-58
2023/05/30 06:22:51;;;;;;;6.30;1.90;;;;;;;33.43;23.66;100871.46;102422;278;94890;-57
2023/05/30 06:25:34;;;;;;;4.60;2.00;;;;;;;33.68;23.51;100868.36;102593;277;97467;-53
2023/05/30 06:28:09;;;;;;;5.50;2.20;;;;;;;33.79;23.50;100872.63;102581;277;120397;-58
2023/05/30 06:30:48;;;;;;;5.30;2.20;;;;;;;33.56;23.29;100874.93;102630;277;105806;-53
2023/05/30 06:33:34;;;;;;;7.30;2.60;;;;;;;33.66;23.07;100881.98;102397;278;115474;-58
2023/05/30 06:36:15;;;;;;;4.10;2.10;;;;;;;33.51;22.68;100882.14;102665;278;92485;-54
2023/05/30 06:39:01;;;;;;;9.60;2.50;;;;;;;33.68;22.81;100880.51;102507;278;97526;-53
2023/05/30 06:41:45;;;;;;;4.00;2.10;;;;;;;33.97;22.82;100888.98;102661;277;119958;-55
2023/05/30 06:44:24;;;;;;;9.20;2.30;;;;;;;34.18;21.91;100889.45;102685;277;104654;-54
2023/05/30 06:47:09;;;;;;;8.60;2.80;;;;;;;34.40;21.95;100883.59;102664;277;114509;-58
2023/05/30 06:49:46;;;;;;;4.30;1.90;;;;;;;34.84;21.94;100884.88;102669;277;93260;-53
2023/05/30 06:52:26;;;;;;;4.40;2.00;;;;;;;34.66;21.61;100888.38;102675;277;97822;-57
2023/05/30 06:55:06;;;;;;;4.80;2.00;;;;;;;34.82;21.43;100888.38;102619;277;120037;-56
2023/05/30 06:57:44;;;;;;;4.00;2.00;;;;;;;34.82;21.48;100884.61;102652;277;105501;-54
2023/05/30 07:00:27;;;;;;;5.60;1.80;;;;;;;34.70;20.88;100882.80;102629;277;114855;-55
2023/05/30 07:03:03;;;;;;;4.20;2.20;;;;;;;34.29;20.80;100884.82;102363;279;96799;-54
2023/05/30 07:05:46;;;;;;;4.50;1.90;;;;;;;34.03;20.85;100887.40;102595;277;97020;-58
2023/05/30 07:08:23;;;;;;;4.10;1.70;;;;;;;34.00;21.12;100887.13;102593;277;119587;-57
2023/05/30 07:11:04;;;;;;;4.50;2.30;;;;;;;34.10;21.12;100889.99;102624;277;105330;-55
2023/05/30 07:13:44;;;;;;;8.10;2.50;;;;;;;33.45;20.93;100887.08;102552;277;114730;-54
2023/05/30 07:16:20;;;;;;;5.60;2.10;;;;;;;33.89;21.05;100881.90;102617;277;95180;-55
2023/05/30 07:18:59;;;;;;;4.80;2.10;;;;;;;34.34;20.80;100881.86;102554;277;96217;-54
2023/05/30 07:21:48;;;;;;;8.20;2.30;;;;;;;34.51;20.59;100883.63;102632;277;120571;-57
2023/05/30 07:24:27;;;;;;;6.80;2.20;;;;;;;34.22;20.03;100887.62;102641;277;105945;-57
2023/05/30 07:27:07;;;;;;;4.10;2.20;;;;;;;34.69;20.64;100882.14;102632;277;113034;-54
2023/05/30 07:29:44;;;;;;;4.50;2.20;;;;;;;34.66;20.22;100887.02;102596;278;93171;-54
2023/05/30 07:32:21;;;;;;;3.70;2.10;;;;;;;34.33;20.36;100889.72;102606;278;98969;-59
2023/05/30 07:35:05;;;;;;;4.50;1.80;;;;;;;34.30;20.27;100887.02;102651;278;119734;-58
2023/05/30 07:37:43;;;;;;;3.50;1.90;;;;;;;33.89;20.40;100888.88;102680;277;104942;-53
2023/05/30 07:40:27;;;;;;;4.70;2.30;;;;;;;33.91;20.56;100889.83;102600;278;115077;-54
2023/05/30 07:43:05;;;;;;;3.20;1.40;;;;;;;34.31;20.25;100892.10;102644;277;93807;-57
2023/05/30 07:45:52;;;;;;;8.80;2.30;;;;;;;34.24;20.04;100892.45;102649;277;96645;-56
2023/05/30 07:48:36;;;;;;;5.00;1.70;;;;;;;34.66;20.24;100888.62;102672;277;120951;-55
2023/05/30 07:51:20;;;;;;;3.20;1.80;;;;;;;34.32;19.75;100894.08;102645;277;105726;-55
2023/05/30 07:54:03;;;;;;;4.80;2.20;;;;;;;34.24;19.80;100895.23;102611;277;113317;-55
2023/05/30 07:56:40;;;;;;;7.10;1.90;;;;;;;33.95;19.47;100889.63;102576;277;94349;-59
2023/05/30 07:59:18;;;;;;;10.40;2.00;;;;;;;34.26;19.84;100886.29;102604;277;97503;-59
2023/05/30 08:02:00;;;;;;;4.10;1.90;;;;;;;34.41;19.31;100893.95;102393;278;119621;-54
2023/05/30 08:04:38;;;;;;;3.90;2.00;;;;;;;34.13;19.20;100894.45;102613;277;105729;-55
2023/05/30 08:07:17;;;;;;;4.80;2.10;;;;;;;34.14;19.26;100897.84;102608;278;114474;-59
2023/05/30 08:09:53;;;;;;;2.70;1.80;;;;;;;33.81;19.36;100902.90;102562;277;93325;-59
2023/05/30 08:12:33;;;;;;;3.40;1.50;;;;;;;34.12;19.45;100905.80;102614;277;96399;-53
2023/05/30 08:15:15;;;;;;;8.50;2.80;;;;;;;33.90;19.67;100903.41;102642;277;119081;-54
2023/05/30 08:17:53;;;;;;;3.40;1.80;;;;;;;34.24;19.51;100897.09;102426;278;106763;-54
2023/05/30 08:20:42;;;;;;;7.40;2.50;;;;;;;34.17;19.24;100901.27;102683;277;113602;-57
2023/05/30 08:23:20;;;;;;;6.20;2.20;;;;;;;34.00;19.58;100900.19;102671;277;92255;-58
2023/05/30 08:25:59;;;;;;;3.50;1.60;;;;;;;34.11;19.28;100900.79;102672;277;97824;-54
2023/05/30 08:28:37;;;;;;;4.40;1.70;;;;;;;34.12;19.28;100900.19;102675;277;120223;-54
2023/05/30 08:31:15;;;;;;;10.50;2.00;;;;;;;33.60;19.27;100903.54;102638;277;105858;-57
2023/05/30 08:33:55;;;;;;;6.80;2.20;;;;;;;33.34;19.43;100908.40;102601;278;115131;-56
2023/05/30 08:36:35;;;;;;;3.20;1.70;;;;;;;33.18;19.54;100904.77;102596;277;93373;-55
2023/05/30 08:39:12;;;;;;;5.40;2.00;;;;;;;32.91;19.71;100898.02;102657;277;99179;-55
2023/05/30 08:41:48;;;;;;;8.90;2.80;;;;;;;33.10;20.18;100900.02;102638;277;120207;-63
2023/05/30 08:44:27;;;;;;;4.00;1.80;;;;;;;33.45;20.05;100899.70;102658;277;105174;-64
2023/05/30 08:47:07;;;;;;;5.90;2.00;;;;;;;33.15;19.86;100900.09;102693;277;115269;-63
2023/05/30 08:49:48;;;;;;;6.00;2.00;;;;;;;33.10;19.72;100902.39;102435;278;95569;-63
2023/05/30 08:52:31;;;;;;;3.70;1.60;;;;;;;32.80;19.60;100902.39;102698;277;97459;-58
2023/05/30 08:55:16;;;;;;;4.30;1.80;;;;;;;31.99;20.01;100902.49;102688;277;121104;-59
2023/05/30 08:58:10;;;;;;;4.80;2.10;;;;;;;31.38;20.25;100912.59;102682;277;103321;-58
2023/05/30 09:00:44;;;;;;;;;;;;;;;30.83;20.98;100915.77;102636;277;114559;-58
2023/05/30 09:03:22;;;;;;;3.50;1.70;;;;;;;30.23;21.28;100922.84;102580;278;94387;-58
2023/05/30 09:06:03;;;;;;;4.50;2.10;;;;;;;29.77;21.86;100922.32;102614;277;98184;-54
2023/05/30 09:08:51;;;;;;;4.50;1.90;;;;;;;29.33;22.48;100929.30;102630;277;119522;-54
2023/05/30 09:11:31;;;;;;;3.50;1.70;;;;;;;28.83;22.70;100928.73;102607;278;105169;-55
2023/05/30 09:14:13;;;;;;;5.40;1.80;;;;;;;28.49;23.44;100921.27;102584;277;114341;-55
2023/05/30 09:16:49;;;;;;;4.50;1.90;;;;;;;28.11;23.17;100923.50;102614;278;94657;-54
2023/05/30 09:19:28;;;;;;;3.50;1.60;;;;;;;27.25;23.70;100927.41;102630;277;98030;-54
2023/05/30 09:22:03;;;;;;;5.80;2.10;;;;;;;26.73;24.33;100924.84;102679;277;120099;-57
2023/05/30 09:25:05;;;;;;;4.90;1.90;;;;;;;26.54;25.13;100924.94;102634;277;104569;-56
2023/05/30 09:27:44;;;;;;;4.30;1.50;;;;;;;26.49;25.30;100930.89;102668;277;114945;-59
2023/05/30 09:30:23;;;;;;;4.60;1.60;;;;;;;26.37;25.30;100926.38;102596;277;93831;-58
2023/05/30 09:33:07;;;;;;;3.60;1.70;;;;;;;26.30;25.64;100925.67;102611;277;98426;-56
2023/05/30 09:35:51;;;;;;;3.00;1.60;;;;;;;26.12;25.94;100926.29;102607;277;120465;-57
2023/05/30 09:38:29;;;;;;;2.90;1.40;;;;;;;26.25;25.92;100926.45;102584;277;104368;-55
2023/05/30 09:41:07;;;;;;;5.90;2.00;;;;;;;26.10;26.24;100928.17;102615;277;114359;-57
2023/05/30 09:43:52;;;;;;;3.70;1.80;;;;;;;25.54;26.45;100935.69;102580;277;94248;-56
2023/05/30 09:46:31;;;;;;;3.50;1.70;;;;;;;25.61;26.91;100938.64;102602;277;97348;-56
2023/05/30 09:49:17;;;;;;;3.10;1.70;;;;;;;25.39;26.43;100936.55;102612;277;120248;-57
2023/05/30 09:51:54;;;;;;;2.80;1.40;;;;;;;25.20;26.78;100935.11;102650;277;105342;-55
2023/05/30 09:54:32;;;;;;;5.00;1.60;;;;;;;25.01;27.16;100941.91;102678;277;111811;-54
2023/05/30 09:57:08;;;;;;;5.20;1.90;;;;;;;25.05;27.30;100939.77;102618;277;92163;-56
2023/05/30 09:59:46;;;;;;;3.30;1.50;;;;;;;24.71;27.58;100944.68;102649;277;95558;-56
2023/05/30 10:02:30;;;;;;;4.80;1.60;;;;;;;24.77;27.87;100942.50;102483;267;122200;-56
2023/05/30 10:05:18;;;;;;;4.60;1.60;;;;;;;25.38;28.10;100934.55;102608;277;104643;-56
2023/05/30 10:07:56;;;;;;;4.30;1.60;;;;;;;25.80;28.11;100935.00;102587;277;114880;-58
2023/05/30 10:10:33;;;;;;;5.00;1.50;;;;;;;25.93;28.16;100930.90;102634;277;94445;-55
2023/05/30 10:13:13;;;;;;;4.60;1.80;;;;;;;26.05;27.61;100933.60;102676;265;96498;-57
2023/05/30 10:15:48;;;;;;;3.40;1.70;;;;;;;25.58;26.69;100934.37;102648;266;120350;-57
2023/05/30 10:18:28;;;;;;;3.40;1.60;;;;;;;25.50;26.48;100936.23;102606;277;105764;-58
2023/05/30 10:21:09;;;;;;;3.80;1.60;;;;;;;25.19;26.86;100937.86;102638;278;113634;-54
2023/05/30 10:23:51;;;;;;;5.00;1.70;;;;;;;25.14;26.93;100936.26;102666;277;92754;-54
2023/05/30 10:26:36;;;;;;;4.10;1.70;;;;;;;25.04;26.69;100932.45;102466;277;98486;-53
2023/05/30 10:29:17;;;;;;;5.50;1.80;;;;;;;24.77;26.41;100939.69;102649;277;120357;-54
2023/05/30 10:32:01;;;;;;;3.60;1.70;;;;;;;24.66;26.54;100942.39;102534;277;104391;-57
2023/05/30 10:34:44;;;;;;;4.90;1.70;;;;;;;24.78;27.17;100936.05;102594;277;114321;-57
2023/05/30 10:37:18;;;;;;;3.70;1.70;;;;;;;24.97;26.61;100937.19;102613;277;94278;-58
2023/05/30 10:40:17;;;;;;;4.00;1.50;;;;;;;24.73;26.60;100940.50;102650;277;96780;-58
2023/05/30 10:43:30;;;;;;;2.70;1.70;;;;;;;24.48;26.36;100936.88;102566;277;124116;-57
2023/05/30 10:46:24;;;;;;;4.20;1.70;;;;;;;24.44;26.79;100932.60;102658;277;103828;-55
2023/05/30 10:49:07;;;;;;;3.40;1.40;;;;;;;24.49;26.70;100935.39;102582;277;114943;-53
2023/05/30 10:52:10;;;;;;;4.20;1.60;;;;;;;24.23;26.48;100937.77;102676;277;93509;-55
2023/05/30 10:54:57;;;;;;;3.40;1.30;;;;;;;24.16;26.05;100938.02;102684;277;97261;-57
2023/05/30 10:57:36;;;;;;;4.10;1.50;;;;;;;24.31;26.00;100935.02;102679;277;120965;-57
2023/05/30 11:00:27;;;;;;;3.00;1.60;;;;;;;24.46;26.22;100935.88;102647;277;103390;-58
2023/05/30 11:03:09;;;;;;;2.30;1.50;;;;;;;24.71;25.99;100935.07;102512;277;113906;-54
2023/05/30 11:05:45;;;;;;;3.40;1.70;;;;;;;25.05;26.49;100929.10;102579;277;94572;-55
2023/05/30 11:08:21;;;;;;;4.10;1.70;;;;;;;25.23;26.66;100931.74;102634;278;97141;-55
2023/05/30 11:11:15;;;;;;;3.80;1.30;;;;;;;25.08;26.19;100929.05;102600;277;121268;-53
2023/05/30 11:13:54;;;;;;;2.90;1.50;;;;;;;24.87;25.75;100937.38;102577;277;105320;-53
2023/05/30 11:16:30;;;;;;;3.30;1.30;;;;;;;24.60;25.38;100929.98;102551;277;113255;-58
2023/05/30 11:19:18;;;;;;;2.80;1.50;;;;;;;24.21;25.30;100924.73;102587;277;94535;-59
2023/05/30 11:22:07;;;;;;;2.20;1.30;;;;;;;24.04;25.35;100922.09;102680;277;98617;-55
2023/05/30 11:24:47;;;;;;;3.60;1.50;;;;;;;24.02;25.50;100923.02;102669;277;121527;-55
2023/05/30 11:27:28;;;;;;;4.80;1.50;;;;;;;24.04;25.35;100933.77;102659;277;105057;-54
2023/05/30 11:30:21;;;;;;;4.40;1.30;;;;;;;23.80;25.64;100926.83;102572;277;114265;-54
2023/05/30 11:33:00;;;;;;;2.20;1.50;;;;;;;23.92;25.82;100928.92;102515;278;93477;-57
2023/05/30 11:35:35;;;;;;;3.90;1.30;;;;;;;24.15;25.91;100929.73;102641;277;96728;-55
2023/05/30 11:38:09;;;;;;;5.10;1.40;;;;;;;24.29;26.03;100929.88;102586;277;121748;-53
2023/05/30 11:40:49;;;;;;;3.00;1.60;;;;;;;24.19;25.16;100927.48;102663;277;105842;-54
2023/05/30 11:43:24;;;;;;;3.20;1.50;;;;;;;23.94;25.62;100936.05;102555;277;113823;-54
2023/05/30 11:46:00;;;;;;;6.50;1.70;;;;;;;23.70;25.98;100934.41;102624;277;92700;-53
2023/05/30 11:48:40;;;;;;;3.40;1.40;;;;;;;23.57;25.90;100931.59;102632;278;97343;-54
2023/05/30 11:51:22;;;;;;;2.90;1.40;;;;;;;23.63;26.10;100918.90;102646;277;122753;-57
2023/05/30 11:54:01;;;;;;;3.90;1.60;;;;;;;23.75;26.84;100918.62;102617;277;104765;-53
2023/05/30 11:56:39;;;;;;;7.00;2.00;;;;;;;23.97;27.36;100920.13;102653;277;113079;-57
2023/05/30 11:59:19;;;;;;;7.20;1.60;;;;;;;24.16;26.97;100922.77;102636;277;94499;-57
2023/05/30 12:02:01;;;;;;;3.20;1.30;;;;;;;23.94;25.71;100928.16;102643;277;98318;-58
2023/05/30 12:04:40;;;;;;;4.50;1.70;;;;;;;23.46;25.31;100932.59;102649;277;121313;-58
2023/05/30 12:07:25;;;;;;;2.80;1.30;;;;;;;23.28;26.19;100927.70;102629;277;104348;-54
2023/05/30 12:10:07;;;;;;;2.90;1.60;;;;;;;23.27;25.98;100931.33;102647;277;113767;-54
2023/05/30 12:12:45;;;;;;;3.60;1.50;;;;;;;23.13;25.85;100930.85;102545;278;92611;-53
2023/05/30 12:15:26;;;;;;;4.90;1.50;;;;;;;23.10;25.88;100921.20;102578;277;97585;-54
2023/05/30 12:18:04;;;;;;;3.60;1.20;;;;;;;23.04;25.65;100920.70;102618;277;121345;-53
2023/05/30 12:20:51;;;;;;;3.80;1.40;;;;;;;22.90;25.74;100922.14;102589;278;105328;-57
2023/05/30 12:23:31;;;;;;;2.50;1.20;;;;;;;22.90;26.06;100917.23;102632;277;114272;-57